Time;durP1;ratioP1;P1;durP2;ratioP2;P2;SDS_P1;SDS_P2;PMS_P1;PMS_P2;Temp;Humidity;BMP_temperature;BMP_pressure;BME280_temperature;BME280_humidity;BME280_pressure;Samples;Min_cycle;Max_cycle;Signal;HPM_P1;HPM_P2
2021/10/03 00:01:56;;;;;;;10.32;5.45;;;18.00;99.90;;;;;;5072191;28;20731;-46
2021/10/03 00:04:24;;;;;;;7.75;5.45;;;18.00;99.90;;;;;;5072175;28;20032;-45
2021/10/03 00:06:53;;;;;;;8.02;5.70;;;18.00;99.90;;;;;;5071445;28;20025;-46
2021/10/03 00:09:18;;;;;;;7.47;5.68;;;18.00;99.90;;;;;;5062352;28;20482;-45
2021/10/03 00:11:48;;;;;;;10.07;5.88;;;18.10;99.90;;;;;;5056891;28;20057;-46
2021/10/03 00:14:16;;;;;;;7.80;4.72;;;18.10;99.90;;;;;;5070516;28;20474;-45
2021/10/03 00:16:42;;;;;;;7.07;4.95;;;18.10;99.90;;;;;;5070116;28;20060;-45
2021/10/03 00:19:08;;;;;;;8.13;5.85;;;18.10;99.90;;;;;;5072045;28;20033;-46
2021/10/03 00:21:34;;;;;;;10.35;5.97;;;18.00;99.90;;;;;;5071930;28;20027;-45
2021/10/03 00:23:59;;;;;;;9.05;6.00;;;18.00;99.90;;;;;;5071826;28;20098;-48
2021/10/03 00:26:25;;;;;;;7.15;5.10;;;18.00;99.90;;;;;;5071192;28;20024;-45
2021/10/03 00:28:50;;;;;;;6.90;5.28;;;18.10;99.90;;;;;;5071146;28;20107;-45
2021/10/03 00:31:16;;;;;;;8.63;5.18;;;18.20;99.90;;;;;;5071646;28;20037;-46
2021/10/03 00:33:41;;;;;;;10.05;5.30;;;18.20;99.90;;;;;;5071515;28;20413;-45
2021/10/03 00:36:07;;;;;;;7.07;5.43;;;18.10;99.90;;;;;;5071264;28;20490;-45
2021/10/03 00:38:32;;;;;;;7.22;5.03;;;18.20;99.90;;;;;;5071074;28;20554;-46
2021/10/03 00:40:59;;;;;;;7.43;5.38;;;18.20;99.90;;;;;;5053813;28;20029;-45
2021/10/03 00:43:25;;;;;;;8.15;4.60;;;18.10;99.90;;;;;;5065608;28;20024;-57
2021/10/03 00:45:51;;;;;;;9.05;5.35;;;18.10;99.90;;;;;;5071440;28;20031;-48
2021/10/03 00:48:16;;;;;;;5.82;4.80;;;18.10;99.90;;;;;;5070730;28;20050;-48
2021/10/03 00:50:49;;;;;;;6.80;5.07;;;18.10;99.90;;;;;;5071715;28;20028;-48
2021/10/03 00:53:15;;;;;;;5.90;4.80;;;18.10;99.90;;;;;;5071824;28;20031;-46
2021/10/03 00:55:42;;;;;;;7.15;5.35;;;18.10;99.90;;;;;;5071018;28;20020;-47
2021/10/03 00:58:09;;;;;;;6.05;4.65;;;18.10;99.90;;;;;;5070340;28;20085;-45
2021/10/03 01:00:37;;;;;;;6.57;5.20;;;18.20;99.90;;;;;;5071055;28;20466;-46
2021/10/03 01:03:04;;;;;;;8.55;5.15;;;18.20;99.90;;;;;;5069706;28;20539;-46
2021/10/03 01:05:30;;;;;;;9.63;4.88;;;18.20;99.90;;;;;;5070933;28;20024;-45
2021/10/03 01:07:57;;;;;;;7.70;5.25;;;18.20;99.90;;;;;;5070328;28;20033;-46
2021/10/03 01:10:24;;;;;;;8.10;4.95;;;18.20;99.90;;;;;;5053825;28;20486;-46
2021/10/03 01:13:03;;;;;;;7.65;5.45;;;18.20;99.90;;;;;;5062442;28;20013;-46
2021/10/03 01:15:30;;;;;;;6.88;4.70;;;18.20;99.90;;;;;;5070869;28;20025;-46
2021/10/03 01:17:56;;;;;;;8.57;4.50;;;18.20;99.90;;;;;;5070164;28;20023;-47
2021/10/03 01:20:25;;;;;;;5.70;4.50;;;18.30;99.90;;;;;;5070510;28;20385;-46
2021/10/03 01:22:51;;;;;;;6.40;4.78;;;18.30;99.90;;;;;;5070652;28;20104;-46
2021/10/03 01:25:18;;;;;;;6.72;4.68;;;18.30;99.90;;;;;;5070560;28;20024;-46
2021/10/03 01:27:43;;;;;;;7.05;4.85;;;18.30;99.90;;;;;;5068561;28;20025;-47
2021/10/03 01:30:12;;;;;;;8.18;4.50;;;18.30;99.90;;;;;;5070662;28;20066;-46
2021/10/03 01:32:38;;;;;;;6.43;4.78;;;18.40;99.90;;;;;;5070501;28;20028;-46
2021/10/03 01:35:06;;;;;;;6.20;4.45;;;18.40;99.90;;;;;;5070673;28;20031;-45
2021/10/03 01:37:33;;;;;;;7.00;4.30;;;18.40;99.90;;;;;;5070077;28;20318;-47
2021/10/03 01:40:01;;;;;;;5.55;4.32;;;18.40;99.90;;;;;;5056660;28;20097;-45
2021/10/03 01:42:26;;;;;;;6.93;4.68;;;18.40;99.90;;;;;;5062151;28;20050;-46
2021/10/03 01:44:52;;;;;;;8.57;4.50;;;18.40;99.90;;;;;;5070708;28;20017;-46
2021/10/03 01:47:17;;;;;;;5.55;4.20;;;18.40;99.90;;;;;;5069906;28;20023;-46
2021/10/03 01:49:46;;;;;;;6.75;4.30;;;18.50;99.90;;;;;;5070301;28;20032;-45
2021/10/03 01:52:12;;;;;;;8.80;4.38;;;18.50;99.80;;;;;;5070660;28;20024;-46
2021/10/03 01:54:38;;;;;;;4.78;3.72;;;18.50;99.60;;;;;;5069714;28;20505;-45
2021/10/03 01:57:04;;;;;;;4.63;3.75;;;18.50;99.70;;;;;;5069620;28;20090;-46
2021/10/03 01:59:29;;;;;;;7.35;4.10;;;18.50;99.30;;;;;;5068737;28;20520;-47
2021/10/03 02:01:57;;;;;;;5.15;3.83;;;18.50;99.10;;;;;;5069990;28;20033;-46
2021/10/03 02:04:25;;;;;;;5.90;3.75;;;18.50;99.00;;;;;;5070333;28;20055;-46
2021/10/03 02:06:56;;;;;;;6.15;4.22;;;18.50;98.90;;;;;;5067934;28;20024;-44
2021/10/03 02:09:24;;;;;;;5.38;4.10;;;18.50;98.80;;;;;;5062180;28;20036;-45
2021/10/03 02:11:59;;;;;;;6.32;4.63;;;18.50;98.70;;;;;;5056511;28;20037;-46
2021/10/03 02:14:30;;;;;;;5.85;3.97;;;18.50;98.60;;;;;;5069227;28;20054;-45
2021/10/03 02:16:59;;;;;;;5.20;4.20;;;18.50;98.50;;;;;;5068961;28;20020;-46
2021/10/03 02:19:25;;;;;;;7.03;4.15;;;18.50;98.40;;;;;;5069535;28;20027;-45
2021/10/03 02:21:52;;;;;;;4.45;3.75;;;18.50;98.30;;;;;;5069653;28;20283;-45
2021/10/03 02:24:17;;;;;;;4.95;3.80;;;18.50;98.30;;;;;;5069439;28;20479;-45
2021/10/03 02:26:43;;;;;;;4.90;3.60;;;18.60;98.10;;;;;;5068617;28;20031;-46
2021/10/03 02:29:09;;;;;;;5.22;4.22;;;18.60;97.90;;;;;;5069577;28;20385;-45
2021/10/03 02:31:35;;;;;;;4.38;3.40;;;18.60;97.90;;;;;;5069216;28;20028;-45
2021/10/03 02:34:01;;;;;;;4.03;3.53;;;18.60;98.00;;;;;;5061825;28;20021;-46
2021/10/03 02:36:26;;;;;;;6.35;4.00;;;18.50;98.00;;;;;;5040043;28;20032;-46
2021/10/03 02:38:52;;;;;;;4.15;3.63;;;18.50;97.90;;;;;;5036313;28;20502;-46
2021/10/03 02:41:19;;;;;;;4.90;3.67;;;18.60;97.60;;;;;;5056231;28;20059;-46
2021/10/03 02:43:48;;;;;;;5.85;3.45;;;18.60;97.70;;;;;;5066281;28;20099;-47
2021/10/03 02:46:16;;;;;;;5.65;4.25;;;18.50;97.60;;;;;;5067570;28;20024;-46
2021/10/03 02:48:47;;;;;;;7.10;3.55;;;18.60;97.50;;;;;;5068519;28;20016;-46
2021/10/03 02:51:13;;;;;;;5.68;4.03;;;18.50;97.60;;;;;;5069018;28;20086;-46
2021/10/03 02:53:38;;;;;;;6.97;4.32;;;18.60;97.40;;;;;;5068895;28;20040;-45
2021/10/03 02:56:04;;;;;;;5.15;3.70;;;18.60;97.30;;;;;;5067189;28;20078;-47
2021/10/03 02:58:30;;;;;;;5.32;3.60;;;18.70;97.40;;;;;;5068665;28;20494;-46
2021/10/03 03:00:55;;;;;;;4.50;3.75;;;18.70;97.20;;;;;;5068927;28;20025;-46
2021/10/03 03:03:21;;;;;;;4.85;3.65;;;18.60;97.30;;;;;;5068870;28;20051;-46
2021/10/03 03:05:48;;;;;;;6.20;3.42;;;18.60;97.40;;;;;;5069037;28;20016;-45
2021/10/03 03:08:13;;;;;;;4.53;3.67;;;18.60;97.40;;;;;;5068206;28;20554;-47
2021/10/03 03:10:39;;;;;;;4.78;3.67;;;18.50;97.50;;;;;;5054975;28;20116;-47
2021/10/03 03:13:05;;;;;;;6.38;4.18;;;18.50;97.60;;;;;;5045497;28;20028;-47
2021/10/03 03:15:30;;;;;;;9.20;4.07;;;18.50;97.60;;;;;;5040975;28;20064;-48
2021/10/03 03:17:56;;;;;;;4.07;3.30;;;18.50;97.70;;;;;;5039331;28;20390;-46
2021/10/03 03:20:21;;;;;;;5.63;3.80;;;18.50;97.90;;;;;;5038215;28;20065;-48
2021/10/03 03:22:47;;;;;;;5.38;3.63;;;18.50;97.80;;;;;;5043105;28;20021;-48
2021/10/03 03:25:14;;;;;;;6.30;3.97;;;18.40;97.90;;;;;;5038555;28;20104;-48
2021/10/03 03:27:40;;;;;;;5.47;3.63;;;18.40;97.80;;;;;;5028033;28;20449;-48
2021/10/03 03:30:07;;;;;;;4.40;3.30;;;18.40;97.90;;;;;;5028706;28;20022;-45
2021/10/03 03:32:32;;;;;;;7.45;3.90;;;18.30;97.90;;;;;;5031284;28;20033;-46
2021/10/03 03:34:58;;;;;;;4.38;3.58;;;18.30;98.00;;;;;;5039135;28;20028;-45
2021/10/03 03:37:24;;;;;;;4.75;4.10;;;18.20;98.10;;;;;;5041252;28;20037;-46
2021/10/03 03:39:49;;;;;;;5.55;3.65;;;18.40;97.90;;;;;;5045208;28;20189;-46
2021/10/03 03:42:15;;;;;;;5.30;3.63;;;18.30;97.90;;;;;;5047674;28;20387;-46
2021/10/03 03:44:40;;;;;;;5.05;3.53;;;18.30;97.70;;;;;;5034804;28;20083;-45
2021/10/03 03:47:06;;;;;;;5.57;3.92;;;18.30;98.00;;;;;;5027740;28;20029;-45
2021/10/03 03:49:32;;;;;;;5.05;3.83;;;18.40;97.90;;;;;;5028240;28;20502;-45
2021/10/03 03:51:57;;;;;;;4.18;3.63;;;18.40;97.90;;;;;;5028259;28;20032;-46
2021/10/03 03:54:23;;;;;;;8.52;3.80;;;18.30;97.90;;;;;;5028395;28;20030;-46
2021/10/03 03:56:49;;;;;;;4.60;3.67;;;18.30;97.90;;;;;;5027336;28;20087;-45
2021/10/03 03:59:15;;;;;;;6.63;3.42;;;18.30;97.90;;;;;;5028262;28;20038;-46
2021/10/03 04:01:41;;;;;;;4.95;3.40;;;18.30;97.90;;;;;;5026850;28;20076;-46
2021/10/03 04:04:06;;;;;;;4.80;3.70;;;18.30;97.80;;;;;;5028097;28;20553;-46
2021/10/03 04:06:32;;;;;;;4.57;3.35;;;18.30;98.10;;;;;;5027925;28;20044;-48
2021/10/03 04:08:57;;;;;;;5.53;3.30;;;18.30;97.70;;;;;;5027673;28;20026;-45
2021/10/03 04:11:23;;;;;;;5.30;3.05;;;18.30;97.80;;;;;;5047839;28;20064;-46
2021/10/03 04:13:49;;;;;;;6.47;3.67;;;18.30;97.90;;;;;;5065376;28;20085;-45
2021/10/03 04:16:14;;;;;;;6.28;3.85;;;18.30;97.90;;;;;;5067782;28;20074;-44
2021/10/03 04:18:40;;;;;;;3.85;3.40;;;18.30;97.80;;;;;;5067499;28;20499;-47
2021/10/03 04:21:05;;;;;;;6.07;3.70;;;18.30;97.80;;;;;;5067969;28;20117;-45
2021/10/03 04:23:31;;;;;;;5.20;3.55;;;18.20;98.00;;;;;;5067948;28;20040;-47
2021/10/03 04:25:57;;;;;;;7.65;3.92;;;18.20;98.00;;;;;;5067524;28;20077;-46
2021/10/03 04:28:25;;;;;;;5.97;3.67;;;18.30;97.90;;;;;;5067231;28;20025;-45
2021/10/03 04:30:52;;;;;;;10.32;3.53;;;18.20;97.90;;;;;;5068058;28;20031;-46
2021/10/03 04:33:17;;;;;;;4.05;3.08;;;18.20;97.80;;;;;;5068097;28;20025;-44
2021/10/03 04:35:43;;;;;;;6.28;4.43;;;18.20;97.90;;;;;;5066402;28;20500;-45
2021/10/03 04:38:08;;;;;;;7.55;3.45;;;18.10;98.00;;;;;;5070648;28;20028;-45
2021/10/03 04:40:34;;;;;;;6.20;4.07;;;18.10;98.20;;;;;;5064564;28;20029;-46
2021/10/03 04:42:59;;;;;;;5.25;3.78;;;18.10;98.30;;;;;;5063239;28;20481;-45
2021/10/03 04:45:25;;;;;;;6.13;4.05;;;18.10;98.40;;;;;;5063001;28;20037;-45
2021/10/03 04:47:50;;;;;;;6.03;3.78;;;18.00;98.50;;;;;;5033489;28;20108;-44
2021/10/03 04:50:16;;;;;;;6.53;3.67;;;18.00;98.70;;;;;;5031513;28;20049;-45
2021/10/03 04:52:41;;;;;;;7.30;3.75;;;17.90;98.80;;;;;;5031403;28;20471;-45
2021/10/03 04:55:09;;;;;;;4.57;3.25;;;17.90;98.90;;;;;;5031409;28;20021;-46
2021/10/03 04:57:35;;;;;;;4.78;3.65;;;17.90;99.00;;;;;;5029487;28;20148;-44
2021/10/03 05:00:01;;;;;;;4.55;3.38;;;17.90;99.00;;;;;;5031401;28;20037;-47
2021/10/03 05:02:27;;;;;;;5.63;3.55;;;17.90;99.00;;;;;;5031230;28;20037;-46
2021/10/03 05:04:52;;;;;;;5.35;3.60;;;18.00;99.00;;;;;;5031332;28;20561;-45
2021/10/03 05:07:18;;;;;;;5.95;3.80;;;18.00;98.90;;;;;;5030694;28;20034;-44
2021/10/03 05:09:43;;;;;;;5.60;3.78;;;18.00;98.90;;;;;;5030961;28;20079;-45
2021/10/03 05:12:09;;;;;;;5.28;3.45;;;18.10;98.80;;;;;;5062610;28;20024;-48
2021/10/03 05:14:34;;;;;;;5.90;3.70;;;18.10;98.80;;;;;;5070819;28;20517;-45
2021/10/03 05:17:00;;;;;;;5.72;3.60;;;18.00;98.90;;;;;;5068879;28;20057;-45
2021/10/03 05:19:26;;;;;;;4.65;3.55;;;18.10;99.00;;;;;;5071134;28;20025;-45
2021/10/03 05:21:51;;;;;;;6.45;3.67;;;18.10;98.80;;;;;;5059946;28;20079;-46
2021/10/03 05:24:17;;;;;;;6.20;3.35;;;18.20;98.70;;;;;;5038162;28;20021;-44
2021/10/03 05:26:42;;;;;;;6.40;3.53;;;18.10;98.60;;;;;;5039764;28;20061;-46
2021/10/03 05:29:08;;;;;;;5.10;3.28;;;18.20;98.60;;;;;;5039199;28;20471;-44
2021/10/03 05:31:34;;;;;;;4.20;3.28;;;18.20;98.60;;;;;;5039372;28;20037;-46
2021/10/03 05:33:59;;;;;;;7.72;3.67;;;18.30;98.50;;;;;;5040623;28;20406;-45
2021/10/03 05:36:25;;;;;;;8.60;3.80;;;18.30;98.40;;;;;;5038344;28;20025;-44
2021/10/03 05:38:51;;;;;;;5.38;4.18;;;18.30;98.50;;;;;;5039205;28;20191;-47
2021/10/03 05:41:16;;;;;;;5.10;3.65;;;18.30;98.50;;;;;;5047085;28;20348;-45
2021/10/03 05:43:42;;;;;;;5.10;3.30;;;18.30;98.50;;;;;;5040818;28;20509;-45
2021/10/03 05:46:08;;;;;;;3.95;3.10;;;18.30;98.50;;;;;;5030145;28;20021;-46
2021/10/03 05:48:34;;;;;;;4.18;3.40;;;18.20;98.60;;;;;;5029252;28;20017;-45
2021/10/03 05:51:01;;;;;;;4.63;3.40;;;18.30;98.70;;;;;;5029025;28;20030;-46
2021/10/03 05:53:26;;;;;;;5.13;3.78;;;18.20;98.70;;;;;;5030315;28;20391;-46
2021/10/03 05:55:52;;;;;;;4.47;3.30;;;18.20;98.70;;;;;;5029899;28;20289;-46
2021/10/03 05:58:18;;;;;;;7.93;3.00;;;18.30;98.80;;;;;;5029612;28;20029;-46
2021/10/03 06:00:43;;;;;;;8.57;4.03;;;18.30;98.70;;;;;;5030312;28;20033;-45
2021/10/03 06:03:09;;;;;;;6.13;3.35;;;18.30;98.80;;;;;;5030226;28;20034;-47
2021/10/03 06:05:34;;;;;;;6.93;3.72;;;18.20;98.90;;;;;;5029130;28;20123;-45
2021/10/03 06:08:00;;;;;;;7.65;3.38;;;18.20;99.00;;;;;;5029705;28;20037;-45
2021/10/03 06:10:26;;;;;;;5.22;3.50;;;18.20;99.20;;;;;;5041096;28;20237;-44
2021/10/03 06:12:52;;;;;;;5.07;3.58;;;18.30;98.90;;;;;;5061417;28;20107;-46
2021/10/03 06:15:17;;;;;;;7.85;3.97;;;18.20;99.00;;;;;;5069722;28;20116;-46
2021/10/03 06:17:44;;;;;;;5.72;3.50;;;18.30;98.90;;;;;;5069063;28;20100;-48
2021/10/03 06:20:11;;;;;;;5.07;3.45;;;18.30;99.00;;;;;;5069679;28;20573;-48
2021/10/03 06:22:36;;;;;;;7.93;3.17;;;18.30;98.90;;;;;;5069532;28;20503;-47
2021/10/03 06:25:02;;;;;;;4.00;3.60;;;18.40;98.70;;;;;;5064096;28;20020;-45
2021/10/03 06:27:28;;;;;;;8.13;3.53;;;18.40;98.50;;;;;;5063784;28;20478;-46
2021/10/03 06:29:54;;;;;;;4.57;3.33;;;18.40;98.50;;;;;;5052034;28;20026;-47
2021/10/03 06:32:20;;;;;;;5.70;3.03;;;18.40;98.50;;;;;;5060059;28;20024;-46
2021/10/03 06:34:45;;;;;;;3.80;3.22;;;18.50;98.50;;;;;;5058829;28;20033;-46
2021/10/03 06:37:11;;;;;;;8.27;3.83;;;18.50;98.30;;;;;;5061258;28;20481;-46
2021/10/03 06:39:37;;;;;;;5.30;2.85;;;18.40;98.40;;;;;;5042053;28;20032;-47
2021/10/03 06:42:02;;;;;;;4.68;3.42;;;18.50;98.20;;;;;;5059108;28;20807;-47
2021/10/03 06:44:28;;;;;;;4.30;3.10;;;18.60;98.10;;;;;;5040777;28;20028;-47
2021/10/03 06:46:53;;;;;;;5.20;3.67;;;18.50;98.10;;;;;;5039167;28;20049;-46
2021/10/03 06:49:19;;;;;;;5.07;3.60;;;18.50;98.40;;;;;;5039572;28;20029;-47
2021/10/03 06:51:45;;;;;;;4.72;3.80;;;18.50;98.30;;;;;;5033562;28;20026;-47
2021/10/03 06:54:10;;;;;;;7.70;4.40;;;18.50;98.30;;;;;;5060492;28;20496;-46
2021/10/03 06:56:37;;;;;;;5.00;3.55;;;18.40;98.20;;;;;;5067085;28;20205;-46
2021/10/03 06:59:03;;;;;;;6.53;3.80;;;18.40;98.20;;;;;;5067985;28;20498;-46
2021/10/03 07:01:29;;;;;;;4.60;3.50;;;18.50;98.20;;;;;;5041350;28;20231;-46
2021/10/03 07:03:54;;;;;;;5.43;3.45;;;18.40;98.30;;;;;;5041185;28;20223;-45
2021/10/03 07:06:19;;;;;;;4.85;3.90;;;18.50;98.30;;;;;;5048939;28;20277;-46
2021/10/03 07:08:45;;;;;;;6.80;4.03;;;18.50;98.30;;;;;;5047675;28;20590;-46
2021/10/03 07:11:11;;;;;;;3.95;3.30;;;18.50;98.30;;;;;;5055425;28;20036;-46
2021/10/03 07:13:36;;;;;;;4.32;3.78;;;18.50;98.50;;;;;;5064524;28;20517;-47
2021/10/03 07:16:02;;;;;;;4.70;3.45;;;18.40;98.40;;;;;;5067715;28;20085;-47
2021/10/03 07:18:27;;;;;;;4.70;4.20;;;18.40;98.50;;;;;;5068161;28;20035;-47
2021/10/03 07:20:53;;;;;;;4.05;3.63;;;18.40;98.20;;;;;;5067629;28;20028;-46
2021/10/03 07:23:18;;;;;;;4.40;3.38;;;18.40;98.40;;;;;;5068651;28;20271;-46
2021/10/03 07:25:44;;;;;;;4.32;3.50;;;18.50;98.50;;;;;;5060033;28;20017;-46
2021/10/03 07:28:09;;;;;;;4.20;3.15;;;18.40;98.30;;;;;;5032502;28;20052;-46
2021/10/03 07:30:35;;;;;;;6.50;3.65;;;18.50;98.50;;;;;;5028301;28;20048;-46
2021/10/03 07:33:02;;;;;;;6.97;3.92;;;18.50;98.30;;;;;;5031031;28;20276;-46
2021/10/03 07:35:28;;;;;;;9.43;3.90;;;18.50;98.40;;;;;;5037187;28;20115;-47
2021/10/03 07:37:54;;;;;;;5.93;3.75;;;18.60;98.20;;;;;;5037775;28;20029;-47
2021/10/03 07:40:19;;;;;;;4.53;3.67;;;18.60;98.10;;;;;;5038556;28;20075;-46
2021/10/03 07:42:45;;;;;;;7.65;3.58;;;18.70;98.10;;;;;;5042822;28;20188;-46
2021/10/03 07:45:11;;;;;;;5.60;4.00;;;18.60;97.90;;;;;;5035799;28;20021;-47
2021/10/03 07:47:37;;;;;;;4.03;3.58;;;18.70;97.80;;;;;;5035980;28;20526;-47
2021/10/03 07:50:03;;;;;;;6.53;3.40;;;18.60;97.40;;;;;;5037335;28;20017;-46
2021/10/03 07:52:29;;;;;;;5.38;3.88;;;18.70;97.30;;;;;;5038086;28;20036;-46
2021/10/03 07:54:55;;;;;;;5.32;3.70;;;18.70;97.10;;;;;;5036203;28;20033;-46
2021/10/03 07:57:20;;;;;;;6.40;3.50;;;18.70;97.20;;;;;;5036368;28;20189;-46
2021/10/03 07:59:46;;;;;;;6.35;3.50;;;18.70;97.30;;;;;;5037976;28;20055;-47
2021/10/03 08:02:11;;;;;;;4.45;3.53;;;18.70;97.00;;;;;;5037388;28;20063;-47
2021/10/03 08:04:37;;;;;;;6.25;3.95;;;18.80;97.00;;;;;;5037593;28;20021;-46
2021/10/03 08:07:03;;;;;;;5.47;3.40;;;18.70;97.20;;;;;;5036833;28;20025;-46
2021/10/03 08:09:28;;;;;;;6.72;4.32;;;18.70;97.30;;;;;;5038232;28;20021;-47
2021/10/03 08:11:56;;;;;;;4.78;3.65;;;18.80;97.30;;;;;;5045606;28;20034;-47
2021/10/03 08:14:22;;;;;;;4.47;4.03;;;18.80;97.10;;;;;;5041132;28;20082;-46
2021/10/03 08:16:48;;;;;;;6.82;3.50;;;18.80;96.90;;;;;;5039382;28;20394;-46
2021/10/03 08:19:14;;;;;;;6.38;3.95;;;18.90;97.10;;;;;;5041266;28;20036;-48
2021/10/03 08:21:39;;;;;;;5.72;3.85;;;18.90;97.20;;;;;;5023951;28;20077;-49
2021/10/03 08:24:06;;;;;;;6.82;3.42;;;19.00;97.20;;;;;;5041751;28;20100;-48
2021/10/03 08:26:32;;;;;;;6.25;3.85;;;18.90;97.00;;;;;;5041149;28;20026;-47
2021/10/03 08:28:58;;;;;;;6.45;3.35;;;19.10;96.70;;;;;;5039735;28;20022;-47
2021/10/03 08:31:23;;;;;;;4.28;3.33;;;19.10;96.60;;;;;;5037166;28;20025;-47
2021/10/03 08:33:49;;;;;;;5.68;4.18;;;19.10;96.70;;;;;;5040993;28;20112;-46
2021/10/03 08:36:15;;;;;;;5.18;3.58;;;19.10;96.60;;;;;;5030353;28;20033;-47
2021/10/03 08:38:41;;;;;;;7.10;3.58;;;19.20;96.40;;;;;;5030044;28;20030;-46
2021/10/03 08:41:06;;;;;;;4.80;3.75;;;19.20;96.20;;;;;;5061888;28;20267;-47
2021/10/03 08:43:32;;;;;;;5.85;3.90;;;19.30;96.00;;;;;;5070201;28;20459;-48
2021/10/03 08:45:58;;;;;;;5.82;4.00;;;19.40;96.20;;;;;;5070901;28;20024;-47
2021/10/03 08:48:24;;;;;;;6.60;4.30;;;19.50;95.70;;;;;;5069221;28;20459;-47
2021/10/03 08:50:52;;;;;;;6.28;4.40;;;19.60;95.60;;;;;;5070053;28;20063;-47
2021/10/03 08:53:18;;;;;;;5.50;3.42;;;19.50;95.50;;;;;;5070018;28;20029;-47
2021/10/03 08:55:44;;;;;;;5.28;4.10;;;19.60;95.60;;;;;;5037232;28;20032;-48
2021/10/03 08:58:10;;;;;;;5.53;4.03;;;19.60;95.50;;;;;;5040092;28;20013;-47
2021/10/03 09:00:47;;;;;;;6.13;4.30;;;19.60;95.80;;;;;;5041045;28;20221;-47
2021/10/03 09:03:13;;;;;;;6.20;4.50;;;19.60;95.60;;;;;;5040382;28;20025;-46
2021/10/03 09:05:50;;;;;;;8.18;4.38;;;19.60;95.40;;;;;;5039566;28;20048;-47
2021/10/03 09:08:16;;;;;;;7.32;4.40;;;19.70;95.30;;;;;;5037082;28;20056;-47
2021/10/03 09:10:50;;;;;;;5.10;3.80;;;19.80;95.30;;;;;;5043295;28;20025;-47
2021/10/03 09:13:18;;;;;;;7.15;4.00;;;19.70;95.30;;;;;;5046987;28;20079;-47
2021/10/03 09:15:45;;;;;;;6.38;4.07;;;19.60;95.20;;;;;;5038913;28;20021;-47
2021/10/03 09:18:11;;;;;;;8.02;4.43;;;19.60;95.40;;;;;;5039266;28;20055;-47
2021/10/03 09:20:37;;;;;;;4.97;3.97;;;19.70;95.20;;;;;;5040204;28;20014;-46
2021/10/03 09:23:08;;;;;;;7.32;4.45;;;19.70;95.20;;;;;;5037766;28;20013;-47
2021/10/03 09:25:34;;;;;;;4.93;3.60;;;19.80;95.10;;;;;;5038715;28;20013;-48
2021/10/03 09:28:25;;;;;;;5.78;4.22;;;19.80;94.80;;;;;;5038731;28;20032;-47
2021/10/03 09:30:56;;;;;;;6.85;3.70;;;19.70;95.10;;;;;;5036181;28;20125;-49
2021/10/03 09:33:22;;;;;;;6.97;3.63;;;19.80;95.10;;;;;;5032088;28;20076;-47
2021/10/03 09:35:57;;;;;;;5.55;4.03;;;19.90;94.60;;;;;;5040175;28;20028;-47
2021/10/03 09:38:24;;;;;;;4.40;4.00;;;20.00;94.60;;;;;;5042401;28;20025;-47
2021/10/03 09:41:06;;;;;;;5.88;4.30;;;20.00;94.40;;;;;;5040635;28;20398;-47
2021/10/03 09:43:45;;;;;;;4.85;3.75;;;20.00;94.20;;;;;;5044250;28;20553;-48
2021/10/03 09:46:47;;;;;;;5.50;4.05;;;19.90;94.20;;;;;;5038968;28;20582;-48
2021/10/03 09:49:17;;;;;;;6.30;4.20;;;19.80;94.20;;;;;;5039149;28;20155;-45
2021/10/03 09:51:46;;;;;;;9.07;3.72;;;19.80;94.30;;;;;;5038353;28;20040;-46
2021/10/03 09:54:13;;;;;;;5.95;3.53;;;19.70;94.30;;;;;;5039106;28;20084;-46
2021/10/03 09:56:39;;;;;;;7.90;4.75;;;19.80;94.20;;;;;;5039645;28;20025;-46
2021/10/03 09:59:05;;;;;;;5.55;3.65;;;19.80;94.40;;;;;;5038091;28;20022;-45
2021/10/03 10:01:32;;;;;;;7.97;4.07;;;19.80;94.00;;;;;;5037121;28;20025;-46
2021/10/03 10:03:59;;;;;;;5.28;3.60;;;20.00;93.80;;;;;;5046803;28;20044;-46
2021/10/03 10:06:25;;;;;;;5.30;4.00;;;20.00;93.70;;;;;;5048583;28;20029;-45
2021/10/03 10:08:55;;;;;;;8.07;4.25;;;20.00;93.40;;;;;;5048216;28;20048;-46
2021/10/03 10:11:37;;;;;;;5.97;4.40;;;20.00;93.60;;;;;;5061638;28;20479;-47
2021/10/03 10:14:04;;;;;;;6.82;4.35;;;20.10;93.40;;;;;;5052800;28;20044;-45
2021/10/03 10:16:34;;;;;;;7.47;4.07;;;20.10;93.40;;;;;;5029769;28;20044;-47
2021/10/03 10:19:19;;;;;;;;;;;20.00;93.50;;;;;;5029098;28;20057;-46
2021/10/03 10:21:44;;;;;;;4.95;4.05;;;20.10;93.30;;;;;;5028377;28;19909;-45
2021/10/03 10:24:49;;;;;;;8.15;3.97;;;20.10;93.10;;;;;;5026931;28;20029;-45
2021/10/03 10:27:20;;;;;;;9.30;3.70;;;20.10;93.30;;;;;;5016813;28;20041;-47
2021/10/03 10:30:00;;;;;;;3.88;3.25;;;20.20;93.10;;;;;;5028126;28;20438;-46
2021/10/03 10:32:28;;;;;;;4.80;3.88;;;20.20;93.10;;;;;;5027770;28;20029;-47
2021/10/03 10:35:09;;;;;;;5.95;3.63;;;20.10;93.10;;;;;;5027619;28;20022;-46
2021/10/03 10:38:00;;;;;;;7.60;3.88;;;20.10;93.10;;;;;;5029227;28;20029;-46
2021/10/03 10:40:32;;;;;;;3.88;3.47;;;20.10;93.00;;;;;;5051476;28;20049;-46
2021/10/03 10:43:03;;;;;;;5.63;3.95;;;20.10;93.20;;;;;;5054064;28;20102;-46
2021/10/03 10:45:33;;;;;;;8.18;4.13;;;20.20;92.90;;;;;;5063712;28;20082;-49
2021/10/03 10:48:11;;;;;;;6.82;3.83;;;20.10;92.80;;;;;;5067727;28;20032;-46
2021/10/03 10:50:40;;;;;;;6.13;3.58;;;20.20;92.70;;;;;;5069054;28;20051;-46
2021/10/03 10:53:21;;;;;;;8.10;3.88;;;20.30;92.70;;;;;;5068150;28;20016;-46
2021/10/03 10:56:07;;;;;;;5.55;4.10;;;20.40;92.50;;;;;;5068740;28;20432;-46
2021/10/03 10:58:38;;;;;;;10.90;4.53;;;20.40;92.40;;;;;;5067711;28;20024;-46
2021/10/03 11:01:12;;;;;;;6.28;3.63;;;20.60;92.30;;;;;;5068779;28;20026;-46
2021/10/03 11:03:44;;;;;;;6.55;3.60;;;20.60;92.00;;;;;;5068081;28;20017;-46
2021/10/03 11:06:12;;;;;;;6.55;4.40;;;20.70;92.00;;;;;;5067213;28;20028;-46
2021/10/03 11:09:00;;;;;;;6.13;3.63;;;20.70;92.20;;;;;;5067555;28;20020;-47
2021/10/03 11:11:29;;;;;;;5.45;3.15;;;20.70;92.10;;;;;;5048261;28;20059;-46
2021/10/03 11:13:57;;;;;;;6.50;3.65;;;20.80;92.00;;;;;;5059507;28;20036;-47
2021/10/03 11:16:39;;;;;;;10.25;3.50;;;20.80;91.80;;;;;;5066184;28;20024;-46
2021/10/03 11:19:06;;;;;;;7.22;3.47;;;20.80;92.00;;;;;;5069010;28;20177;-48
2021/10/03 11:21:32;;;;;;;5.55;3.58;;;20.80;91.90;;;;;;5068417;28;20017;-47
2021/10/03 11:24:00;;;;;;;5.63;4.07;;;20.80;91.90;;;;;;5068390;28;20230;-46
2021/10/03 11:26:27;;;;;;;3.95;3.20;;;20.80;91.90;;;;;;5068623;28;20059;-48
2021/10/03 11:28:57;;;;;;;4.40;3.75;;;20.90;92.00;;;;;;5067270;28;20025;-47
2021/10/03 11:31:44;;;;;;;6.78;3.85;;;20.80;91.90;;;;;;5068450;28;20055;-47
2021/10/03 11:34:23;;;;;;;4.25;3.45;;;20.90;91.70;;;;;;5067598;28;20471;-47
2021/10/03 11:36:49;;;;;;;7.13;3.50;;;20.80;92.00;;;;;;5067823;28;20024;-46
2021/10/03 11:39:15;;;;;;;8.18;3.80;;;20.80;92.00;;;;;;5067334;28;20564;-47
2021/10/03 11:41:50;;;;;;;6.95;3.92;;;20.80;92.10;;;;;;5058796;28;20024;-47
2021/10/03 11:44:21;;;;;;;6.85;3.55;;;20.70;92.20;;;;;;5053894;28;20029;-46
2021/10/03 11:47:04;;;;;;;5.65;3.65;;;20.60;92.50;;;;;;5066297;28;20421;-46
2021/10/03 11:49:32;;;;;;;5.47;3.72;;;20.60;92.40;;;;;;5067195;28;20032;-46
2021/10/03 11:51:57;;;;;;;4.53;3.45;;;20.60;92.40;;;;;;5066892;28;20029;-49
2021/10/03 11:54:36;;;;;;;6.00;4.15;;;20.60;92.50;;;;;;5067925;28;20029;-49
2021/10/03 11:57:26;;;;;;;7.03;3.78;;;20.60;92.60;;;;;;5067567;28;20032;-47
2021/10/03 12:00:04;;;;;;;4.20;3.47;;;20.50;92.50;;;;;;5068524;28;20040;-48
2021/10/03 12:02:35;;;;;;;4.65;4.10;;;20.50;92.80;;;;;;5067782;28;20106;-47
2021/10/03 12:05:01;;;;;;;7.07;3.83;;;20.50;92.60;;;;;;5068194;28;20071;-46
2021/10/03 12:07:26;;;;;;;9.77;3.78;;;20.50;92.90;;;;;;5066875;28;20486;-46
2021/10/03 12:10:02;;;;;;;5.45;3.80;;;20.40;92.90;;;;;;5062021;28;20027;-46
2021/10/03 12:12:43;;;;;;;6.07;4.00;;;20.40;93.00;;;;;;5062303;28;20029;-46
2021/10/03 12:15:08;;;;;;;5.78;3.95;;;20.40;93.10;;;;;;5057721;28;20042;-46
2021/10/03 12:17:48;;;;;;;4.10;3.70;;;20.40;93.40;;;;;;5057961;28;20028;-46
2021/10/03 12:20:13;;;;;;;8.93;3.80;;;20.40;93.30;;;;;;5067968;28;20478;-46
2021/10/03 12:22:56;;;;;;;5.07;3.63;;;20.50;93.00;;;;;;5067919;28;20047;-47
2021/10/03 12:25:41;;;;;;;5.00;4.00;;;20.50;92.70;;;;;;5067836;28;20032;-47
2021/10/03 12:28:06;;;;;;;4.32;3.30;;;20.60;92.70;;;;;;5067395;28;20016;-46
2021/10/03 12:30:54;;;;;;;5.50;4.03;;;20.60;92.50;;;;;;5067992;28;20055;-46
2021/10/03 12:33:20;;;;;;;5.63;3.88;;;20.60;92.20;;;;;;5067912;28;20028;-46
2021/10/03 12:36:03;;;;;;;4.20;3.25;;;20.80;91.60;;;;;;5067821;28;20024;-45
2021/10/03 12:38:30;;;;;;;5.43;3.10;;;21.00;91.10;;;;;;5067374;28;20025;-48
2021/10/03 12:40:57;;;;;;;6.50;3.30;;;21.10;90.80;;;;;;5067339;28;20494;-47
2021/10/03 12:43:25;;;;;;;2.97;2.67;;;21.20;90.50;;;;;;5067583;28;20547;-46
2021/10/03 12:45:50;;;;;;;5.43;2.70;;;21.40;90.00;;;;;;5056954;28;20024;-47
2021/10/03 12:48:18;;;;;;;3.75;3.35;;;21.50;89.70;;;;;;5059511;28;20024;-45
2021/10/03 12:50:44;;;;;;;4.45;3.10;;;21.60;89.60;;;;;;5067648;28;20028;-46
2021/10/03 12:53:10;;;;;;;5.32;3.03;;;21.60;89.50;;;;;;5066882;28;20050;-46